createdAt,value
2023-02-15T00:02:38.263Z,5.30
2023-02-15T00:05:23.687Z,5.20
2023-02-15T00:08:09.373Z,5.20
2023-02-15T00:11:08.207Z,5.20
2023-02-15T00:13:53.655Z,5.20
2023-02-15T00:16:40.483Z,5.20
2023-02-15T00:19:28.361Z,5.10
2023-02-15T00:22:13.728Z,5.10
2023-02-15T00:24:59.012Z,5.10
2023-02-15T00:27:44.831Z,5.00
2023-02-15T00:30:30.008Z,5.00
2023-02-15T00:33:15.454Z,5.00
2023-02-15T00:36:02.314Z,5.00
2023-02-15T00:38:47.577Z,5.10
2023-02-15T00:41:36.452Z,5.00
2023-02-15T00:44:21.896Z,5.00
2023-02-15T00:47:07.257Z,5.00
2023-02-15T00:49:55.866Z,5.00
2023-02-15T00:52:41.017Z,5.00
2023-02-15T00:55:26.460Z,5.00
2023-02-15T00:58:13.249Z,4.90
2023-02-15T01:01:14.582Z,4.90
2023-02-15T01:04:03.233Z,4.90
2023-02-15T01:06:48.433Z,4.90
2023-02-15T01:09:34.102Z,4.90
2023-02-15T01:12:19.559Z,4.90
2023-02-15T01:15:08.292Z,4.80
2023-02-15T01:17:54.399Z,4.70
2023-02-15T01:20:42.521Z,4.70
2023-02-15T01:23:27.864Z,4.70
2023-02-15T01:26:14.804Z,4.70
2023-02-15T01:29:05.086Z,4.70
2023-02-15T01:31:50.875Z,4.60
2023-02-15T01:34:36.354Z,4.60
2023-02-15T01:37:24.967Z,4.60
2023-02-15T01:40:15.126Z,4.60
2023-02-15T01:43:03.316Z,4.50
2023-02-15T01:45:50.775Z,4.50
2023-02-15T01:48:44.652Z,4.50
2023-02-15T01:51:34.973Z,4.50
2023-02-15T01:54:30.150Z,4.50
2023-02-15T01:57:23.391Z,4.50
2023-02-15T02:00:10.031Z,4.50
2023-02-15T02:02:58.679Z,4.50
2023-02-15T02:05:44.548Z,4.40
2023-02-15T02:08:32.575Z,4.40
2023-02-15T02:11:18.169Z,4.40
2023-02-15T02:14:09.335Z,4.40
2023-02-15T02:17:07.057Z,4.50
2023-02-15T02:20:12.030Z,4.50
2023-02-15T02:23:25.028Z,4.40
2023-02-15T02:26:32.458Z,4.40
2023-02-15T02:29:23.569Z,4.40
2023-02-15T02:32:29.184Z,4.30
2023-02-15T02:35:33.675Z,4.30
2023-02-15T02:38:24.687Z,4.30
2023-02-15T02:41:30.072Z,4.30
2023-02-15T02:44:26.382Z,4.30
2023-02-15T02:47:31.004Z,4.30
2023-02-15T02:50:25.315Z,4.30
2023-02-15T02:53:12.226Z,4.30
2023-02-15T02:56:11.246Z,4.30
2023-02-15T02:59:11.112Z,4.30
2023-02-15T03:02:04.586Z,4.30
2023-02-15T03:04:59.755Z,4.30
2023-02-15T03:07:47.461Z,4.30
2023-02-15T03:10:37.458Z,4.20
2023-02-15T03:13:24.649Z,4.30
2023-02-15T03:16:29.556Z,4.30
2023-02-15T03:19:23.403Z,4.30
2023-02-15T03:22:20.339Z,4.20
2023-02-15T03:25:54.917Z,4.20
2023-02-15T03:28:46.858Z,4.30
2023-02-15T03:31:38.647Z,4.20
2023-02-15T03:34:24.426Z,4.20
2023-02-15T03:37:25.435Z,4.10
2023-02-15T03:40:37.032Z,4.10
2023-02-15T03:43:57.484Z,4.10
2023-02-15T03:47:25.138Z,4.10
2023-02-15T03:50:44.100Z,4.10
2023-02-15T03:53:30.174Z,4.00
2023-02-15T03:56:15.767Z,4.00
2023-02-15T03:59:19.979Z,4.00
2023-02-15T04:02:27.860Z,4.00
2023-02-15T04:05:19.474Z,4.00
2023-02-15T04:08:05.936Z,4.00
2023-02-15T04:10:53.937Z,3.90
2023-02-15T04:13:39.240Z,3.90
2023-02-15T04:16:31.123Z,3.90
2023-02-15T04:19:35.134Z,4.00
2023-02-15T04:22:39.757Z,3.90
2023-02-15T04:25:25.352Z,4.00
2023-02-15T04:28:10.891Z,4.00
2023-02-15T04:30:56.443Z,4.00
2023-02-15T04:33:42.090Z,4.00
2023-02-15T04:36:27.804Z,4.00
2023-02-15T04:39:17.792Z,4.00
2023-02-15T04:42:04.693Z,4.00
2023-02-15T04:44:52.359Z,4.00
2023-02-15T04:47:37.778Z,4.00
2023-02-15T04:50:23.458Z,4.00
2023-02-15T04:53:08.575Z,3.90
2023-02-15T04:56:02.229Z,3.90
2023-02-15T04:58:48.152Z,3.90
2023-02-15T05:01:33.735Z,3.90
2023-02-15T05:04:19.182Z,3.80
2023-02-15T05:07:05.196Z,3.80
2023-02-15T05:09:50.716Z,3.80
2023-02-15T05:12:36.415Z,3.80
2023-02-15T05:15:21.809Z,3.70
2023-02-15T05:18:10.768Z,3.70
2023-02-15T05:20:56.594Z,3.70
2023-02-15T05:23:41.822Z,3.70
2023-02-15T05:26:49.338Z,3.70
2023-02-15T05:29:37.516Z,3.60
2023-02-15T05:32:23.292Z,3.60
2023-02-15T05:35:09.022Z,3.60
2023-02-15T05:37:54.557Z,3.50
2023-02-15T05:40:40.198Z,3.50
2023-02-15T05:43:26.303Z,3.50
2023-02-15T05:46:12.791Z,3.50
2023-02-15T05:48:58.480Z,3.50
2023-02-15T05:51:45.561Z,3.50
2023-02-15T05:54:31.489Z,3.50
2023-02-15T05:57:16.931Z,3.50
2023-02-15T06:00:06.808Z,3.40
2023-02-15T06:02:56.928Z,3.40
2023-02-15T06:05:45.917Z,3.40
2023-02-15T06:08:31.952Z,3.40
2023-02-15T06:11:18.106Z,3.40
2023-02-15T06:14:03.631Z,3.40
2023-02-15T06:16:48.816Z,3.40
2023-02-15T06:19:37.672Z,3.40
2023-02-15T06:22:23.832Z,3.40
2023-02-15T06:25:12.249Z,3.40
2023-02-15T06:27:57.508Z,3.40
2023-02-15T06:30:43.050Z,3.40
2023-02-15T06:33:28.470Z,3.40
2023-02-15T06:36:14.059Z,3.40
2023-02-15T06:38:59.690Z,3.40
2023-02-15T06:41:46.284Z,3.40
2023-02-15T06:44:31.620Z,3.40
2023-02-15T06:47:17.143Z,3.30
2023-02-15T06:50:04.295Z,3.40
2023-02-15T06:52:49.934Z,3.30
2023-02-15T06:55:35.364Z,3.40
2023-02-15T06:58:20.861Z,3.30
2023-02-15T07:01:07.263Z,3.30
2023-02-15T07:03:55.247Z,3.30
2023-02-15T07:06:41.221Z,3.30
2023-02-15T07:09:29.702Z,3.40
2023-02-15T07:12:34.727Z,3.40
2023-02-15T07:15:23.967Z,3.40
2023-02-15T07:18:10.097Z,3.40
2023-02-15T07:20:55.618Z,3.40
2023-02-15T07:23:41.361Z,3.40
2023-02-15T07:26:27.419Z,3.50
2023-02-15T07:29:12.600Z,3.50
2023-02-15T07:31:58.006Z,3.50
2023-02-15T07:34:43.444Z,3.50
2023-02-15T07:37:29.836Z,3.60
2023-02-15T07:40:18.024Z,3.60
2023-02-15T07:43:04.686Z,3.60
2023-02-15T07:45:50.500Z,3.70
2023-02-15T07:48:38.656Z,3.70
2023-02-15T07:51:37.200Z,3.80
2023-02-15T07:54:24.126Z,3.80
2023-02-15T07:57:12.332Z,3.80
2023-02-15T07:59:57.433Z,3.90
2023-02-15T08:02:43.402Z,3.90
2023-02-15T08:05:29.825Z,3.90
2023-02-15T08:08:32.973Z,4.00
2023-02-15T08:11:33.807Z,4.10
2023-02-15T08:14:21.634Z,4.10
2023-02-15T08:17:09.852Z,4.20
2023-02-15T08:19:58.198Z,4.30
2023-02-15T08:22:46.271Z,4.30
2023-02-15T08:25:37.023Z,4.40
2023-02-15T08:28:22.549Z,4.50
2023-02-15T08:31:10.053Z,4.50
2023-02-15T08:33:57.494Z,4.60
2023-02-15T08:36:43.356Z,4.70
2023-02-15T08:39:29.671Z,4.70
2023-02-15T08:42:15.010Z,4.80
2023-02-15T08:45:00.430Z,4.80
2023-02-15T08:47:45.978Z,4.90
2023-02-15T08:50:31.993Z,5.00
2023-02-15T08:53:21.218Z,5.00
2023-02-15T08:56:07.442Z,5.00
2023-02-15T08:58:57.169Z,5.10
2023-02-15T09:01:43.795Z,5.20
2023-02-15T09:04:29.019Z,5.30
2023-02-15T09:07:19.878Z,5.40
2023-02-15T09:10:06.304Z,5.50
2023-02-15T09:12:52.391Z,5.50
2023-02-15T09:15:37.876Z,5.50
2023-02-15T09:18:23.172Z,5.60
2023-02-15T09:21:20.311Z,5.70
2023-02-15T09:24:08.577Z,5.80
2023-02-15T09:26:53.735Z,5.80
2023-02-15T09:29:40.087Z,5.80
2023-02-15T09:32:25.256Z,5.90
2023-02-15T09:35:10.836Z,6.00
2023-02-15T09:37:56.140Z,6.00
2023-02-15T09:41:00.408Z,6.10
2023-02-15T09:44:12.580Z,6.30
2023-02-15T09:47:53.312Z,6.40
2023-02-15T09:50:57.497Z,6.50
2023-02-15T09:54:18.609Z,6.70
2023-02-15T09:57:20.813Z,6.80
2023-02-15T10:00:22.663Z,7.00
2023-02-15T10:03:17.065Z,7.20
2023-02-15T10:06:32.857Z,7.40
2023-02-15T10:09:46.807Z,7.60
2023-02-15T10:12:40.839Z,7.80
2023-02-15T10:15:54.368Z,8.00
2023-02-15T10:19:07.234Z,8.20
2023-02-15T10:22:01.946Z,8.30
2023-02-15T10:25:17.751Z,8.50
2023-02-15T10:28:07.313Z,8.60
2023-02-15T10:31:06.112Z,8.70
2023-02-15T10:34:21.628Z,8.90
2023-02-15T10:37:29.903Z,9.00
2023-02-15T10:40:36.628Z,9.20
2023-02-15T10:43:25.512Z,9.40
2023-02-15T10:46:48.692Z,9.60
2023-02-15T10:49:52.860Z,9.80
2023-02-15T10:52:39.281Z,10.00
2023-02-15T10:55:39.814Z,10.00
2023-02-15T10:58:47.269Z,10.20
2023-02-15T11:01:54.548Z,10.30
2023-02-15T11:04:53.988Z,10.50
2023-02-15T11:07:46.786Z,10.80
2023-02-15T11:10:36.957Z,11.10
2023-02-15T11:13:28.530Z,11.20
2023-02-15T11:16:28.998Z,11.40
2023-02-15T11:19:20.653Z,11.80
2023-02-15T11:22:07.971Z,11.90
2023-02-15T11:24:58.490Z,12.00
2023-02-15T11:27:47.770Z,12.00
2023-02-15T11:30:45.797Z,12.20
2023-02-15T11:33:38.455Z,12.50
2023-02-15T11:36:28.484Z,12.90
2023-02-15T11:39:18.315Z,13.20
2023-02-15T11:42:12.672Z,13.70
2023-02-15T11:45:17.947Z,13.80
2023-02-15T11:48:16.931Z,14.10
2023-02-15T11:51:04.440Z,14.30
2023-02-15T11:53:51.154Z,14.40
2023-02-15T11:56:39.284Z,14.60
2023-02-15T11:59:35.940Z,14.70
2023-02-15T12:02:23.609Z,14.70
2023-02-15T12:05:24.093Z,14.90
2023-02-15T12:08:15.890Z,15.50
2023-02-15T12:11:16.601Z,15.80
2023-02-15T12:14:08.083Z,16.00
2023-02-15T12:16:58.219Z,16.40
2023-02-15T12:19:44.716Z,17.20
2023-02-15T12:22:37.152Z,18.00
2023-02-15T12:25:55.237Z,18.70
2023-02-15T12:28:50.145Z,19.20
2023-02-15T12:31:42.995Z,20.40
2023-02-15T12:34:37.016Z,21.10
2023-02-15T12:37:29.420Z,21.30
2023-02-15T12:40:26.740Z,21.20
2023-02-15T12:43:38.779Z,21.10
2023-02-15T12:46:42.694Z,20.70
2023-02-15T12:49:36.624Z,20.10
2023-02-15T12:52:21.709Z,19.60
2023-02-15T12:55:31.739Z,19.10
2023-02-15T12:58:42.589Z,18.60
2023-02-15T13:01:33.114Z,18.10
2023-02-15T13:04:28.476Z,18.00
2023-02-15T13:07:14.635Z,17.90
2023-02-15T13:10:25.677Z,17.70
2023-02-15T13:13:23.419Z,17.60
2023-02-15T13:16:14.336Z,17.50
2023-02-15T13:19:05.422Z,17.80
2023-02-15T13:21:53.891Z,18.00
2023-02-15T13:24:44.222Z,17.90
2023-02-15T13:27:39.436Z,17.70
2023-02-15T13:30:39.849Z,17.50
2023-02-15T13:33:35.098Z,17.30
2023-02-15T13:36:29.582Z,17.20
2023-02-15T13:39:53.084Z,17.10
2023-02-15T13:42:48.545Z,16.90
2023-02-15T13:45:54.399Z,17.10
2023-02-15T13:48:54.068Z,17.20
2023-02-15T13:51:50.648Z,17.20
2023-02-15T13:55:11.364Z,17.60
2023-02-15T13:58:06.087Z,17.90
2023-02-15T14:01:02.767Z,17.90
2023-02-15T14:03:51.498Z,17.80
2023-02-15T14:06:47.714Z,17.70
2023-02-15T14:10:03.618Z,17.70
2023-02-15T14:13:21.029Z,17.80
2023-02-15T14:16:12.281Z,18.00
2023-02-15T14:19:24.733Z,18.50
2023-02-15T14:22:32.843Z,19.30
2023-02-15T14:25:39.274Z,20.40
2023-02-15T14:28:46.105Z,21.50
2023-02-15T14:31:42.037Z,21.90
2023-02-15T14:34:43.411Z,21.50
2023-02-15T14:37:47.539Z,20.50
2023-02-15T14:41:07.562Z,19.60
2023-02-15T14:43:58.968Z,19.10
2023-02-15T14:47:25.843Z,18.50
2023-02-15T14:50:34.704Z,18.10
2023-02-15T14:53:43.074Z,17.80
2023-02-15T14:56:29.791Z,17.40
2023-02-15T14:59:21.711Z,17.20
2023-02-15T15:02:10.110Z,16.90
2023-02-15T15:05:24.492Z,16.80
2023-02-15T15:08:42.889Z,16.70
2023-02-15T15:11:43.137Z,16.60
2023-02-15T15:14:33.132Z,16.30
2023-02-15T15:17:39.209Z,15.90
2023-02-15T15:20:28.096Z,15.60
2023-02-15T15:23:16.771Z,15.30
2023-02-15T15:26:22.950Z,15.10
2023-02-15T15:29:13.797Z,14.80
2023-02-15T15:32:02.274Z,14.60
2023-02-15T15:35:22.213Z,14.40
2023-02-15T15:38:16.961Z,14.30
2023-02-15T15:41:17.295Z,14.20
2023-02-15T15:44:32.189Z,14.10
2023-02-15T15:47:23.952Z,14.00
2023-02-15T15:50:18.485Z,13.80
2023-02-15T15:53:05.254Z,13.70
2023-02-15T15:55:56.668Z,13.50
2023-02-15T15:58:51.107Z,13.40
2023-02-15T16:01:42.198Z,13.30
2023-02-15T16:04:33.294Z,13.10
2023-02-15T16:07:18.950Z,13.00
2023-02-15T16:10:25.068Z,12.90
2023-02-15T16:13:15.362Z,12.70
2023-02-15T16:16:00.811Z,12.60
2023-02-15T16:18:48.060Z,12.50
2023-02-15T16:21:37.344Z,12.30
2023-02-15T16:24:25.631Z,12.20
2023-02-15T16:27:35.011Z,12.10
2023-02-15T16:30:37.514Z,12.10
2023-02-15T16:33:22.949Z,12.00
2023-02-15T16:36:23.443Z,11.80
2023-02-15T16:39:17.662Z,11.80
2023-02-15T16:42:06.639Z,11.70
2023-02-15T16:44:58.811Z,11.80
2023-02-15T16:47:53.137Z,11.90
2023-02-15T16:50:39.862Z,11.70
2023-02-15T16:53:28.467Z,11.60
2023-02-15T16:56:33.859Z,11.40
2023-02-15T16:59:31.338Z,11.30
2023-02-15T17:02:40.174Z,11.20
2023-02-15T17:05:40.528Z,11.10
2023-02-15T17:08:35.149Z,11.00
2023-02-15T17:11:22.738Z,10.90
2023-02-15T17:14:10.463Z,10.90
2023-02-15T17:17:07.083Z,10.80
2023-02-15T17:19:56.097Z,10.80
2023-02-15T17:22:41.624Z,10.70
2023-02-15T17:25:38.102Z,10.60
2023-02-15T17:28:30.441Z,10.60
2023-02-15T17:31:18.576Z,10.60
2023-02-15T17:34:07.396Z,10.50
2023-02-15T17:37:03.374Z,10.40
2023-02-15T17:39:52.098Z,10.40
2023-02-15T17:42:37.484Z,10.40
2023-02-15T17:45:26.197Z,10.40
2023-02-15T17:48:21.689Z,10.30
2023-02-15T17:51:12.068Z,10.30
2023-02-15T17:54:16.163Z,10.20
2023-02-15T17:57:05.776Z,10.20
2023-02-15T18:00:09.826Z,10.20
2023-02-15T18:03:16.869Z,10.20
2023-02-15T18:06:20.648Z,10.20
2023-02-15T18:09:24.981Z,10.20
2023-02-15T18:12:29.653Z,10.20
2023-02-15T18:15:15.191Z,10.20
2023-02-15T18:18:00.883Z,10.20
2023-02-15T18:20:48.602Z,10.20
2023-02-15T18:23:34.301Z,10.20
2023-02-15T18:26:23.335Z,10.20
2023-02-15T18:29:12.957Z,10.20
2023-02-15T18:32:02.121Z,10.10
2023-02-15T18:34:49.187Z,10.10
2023-02-15T18:37:37.734Z,10.10
2023-02-15T18:40:31.438Z,10.10
2023-02-15T18:43:17.163Z,10.00
2023-02-15T18:46:02.757Z,10.00
2023-02-15T18:48:48.394Z,10.00
2023-02-15T18:51:39.997Z,10.00
2023-02-15T18:54:25.798Z,10.00
2023-02-15T18:57:13.808Z,9.90
2023-02-15T18:59:59.796Z,9.90
2023-02-15T19:02:46.021Z,9.90
2023-02-15T19:05:32.750Z,9.90
2023-02-15T19:08:22.051Z,9.90
2023-02-15T19:11:13.268Z,9.90
2023-02-15T19:13:58.971Z,9.80
2023-02-15T19:16:44.619Z,9.80
2023-02-15T19:19:30.041Z,9.80
2023-02-15T19:22:25.288Z,9.70
2023-02-15T19:25:37.479Z,9.70
2023-02-15T19:28:34.503Z,9.70
2023-02-15T19:31:20.235Z,9.70
2023-02-15T19:34:16.671Z,9.60
2023-02-15T19:37:05.484Z,9.60
2023-02-15T19:39:50.794Z,9.60
2023-02-15T19:42:36.384Z,9.50
2023-02-15T19:45:24.260Z,9.50
2023-02-15T19:48:13.710Z,9.40
2023-02-15T19:50:59.459Z,9.40
2023-02-15T19:53:47.822Z,9.40
2023-02-15T19:56:33.160Z,9.30
2023-02-15T19:59:24.032Z,9.30
2023-02-15T20:02:22.806Z,9.30
2023-02-15T20:05:08.272Z,9.30
2023-02-15T20:07:54.108Z,9.20
2023-02-15T20:10:39.219Z,9.20
2023-02-15T20:13:25.209Z,9.20
2023-02-15T20:16:11.223Z,9.10
2023-02-15T20:18:56.680Z,9.10
2023-02-15T20:21:54.650Z,9.10
2023-02-15T20:24:39.808Z,9.10
2023-02-15T20:27:28.989Z,9.20
2023-02-15T20:30:17.217Z,9.10
2023-02-15T20:33:03.974Z,9.10
2023-02-15T20:35:51.687Z,9.10
2023-02-15T20:38:39.973Z,9.00
2023-02-15T20:41:37.541Z,9.00
2023-02-15T20:44:29.181Z,9.00
2023-02-15T20:47:14.551Z,8.90
2023-02-15T20:50:00.400Z,9.00
2023-02-15T20:52:46.945Z,8.90
2023-02-15T20:55:32.579Z,8.90
2023-02-15T20:58:24.710Z,8.90
2023-02-15T21:01:12.043Z,8.80
2023-02-15T21:03:57.372Z,8.80
2023-02-15T21:06:45.158Z,8.70
2023-02-15T21:09:31.932Z,8.70
2023-02-15T21:12:19.517Z,8.70
2023-02-15T21:15:19.945Z,8.80
2023-02-15T21:18:07.716Z,8.80
2023-02-15T21:20:55.885Z,8.80
2023-02-15T21:23:43.664Z,8.90
2023-02-15T21:26:29.241Z,8.80
2023-02-15T21:29:17.879Z,8.90
2023-02-15T21:32:04.009Z,9.00
2023-02-15T21:34:49.429Z,9.00
2023-02-15T21:37:39.989Z,9.00
2023-02-15T21:40:31.049Z,9.10
2023-02-15T21:43:44.188Z,9.10
2023-02-15T21:46:48.151Z,9.00
2023-02-15T21:49:33.203Z,9.10
2023-02-15T21:52:23.086Z,9.10
2023-02-15T21:55:14.792Z,9.00
2023-02-15T21:58:16.929Z,9.00
2023-02-15T22:01:03.234Z,9.00
2023-02-15T22:03:49.147Z,9.10
2023-02-15T22:06:37.261Z,9.10
2023-02-15T22:09:26.726Z,9.10
2023-02-15T22:12:17.531Z,9.10
2023-02-15T22:15:06.913Z,9.10
2023-02-15T22:17:53.465Z,9.00
2023-02-15T22:20:39.108Z,9.10
2023-02-15T22:23:24.569Z,9.00
2023-02-15T22:26:25.014Z,9.00
2023-02-15T22:29:17.253Z,8.90
2023-02-15T22:32:02.425Z,8.90
2023-02-15T22:34:48.010Z,8.90
2023-02-15T22:37:36.902Z,8.90
2023-02-15T22:40:29.156Z,8.90
2023-02-15T22:43:28.170Z,8.90
2023-02-15T22:46:24.845Z,8.80
2023-02-15T22:49:14.171Z,8.80
2023-02-15T22:51:59.735Z,8.70
2023-02-15T22:54:46.124Z,8.80
2023-02-15T22:57:32.441Z,8.70
2023-02-15T23:00:30.629Z,8.70
2023-02-15T23:03:18.358Z,8.60
2023-02-15T23:06:04.313Z,8.50
2023-02-15T23:08:50.030Z,8.50
2023-02-15T23:11:35.651Z,8.40
2023-02-15T23:14:27.371Z,8.40
2023-02-15T23:17:13.146Z,8.40
2023-02-15T23:19:58.602Z,8.50
2023-02-15T23:22:44.662Z,8.40
2023-02-15T23:25:30.085Z,8.40
2023-02-15T23:28:25.918Z,8.40
2023-02-15T23:31:29.098Z,8.30
2023-02-15T23:34:23.535Z,8.30
2023-02-15T23:37:12.837Z,8.30
2023-02-15T23:40:20.206Z,8.30
2023-02-15T23:43:10.353Z,8.30
2023-02-15T23:45:55.669Z,8.30
2023-02-15T23:48:41.221Z,8.30
2023-02-15T23:51:32.790Z,8.30
2023-02-15T23:54:20.396Z,8.20
2023-02-15T23:57:08.064Z,8.20
2023-02-15T23:59:53.426Z,8.20
